Time;durP1;ratioP1;P1;durP2;ratioP2;P2;SDS_P1;SDS_P2;PMS_P1;PMS_P2;Temp;Humidity;BMP_temperature;BMP_pressure;BME280_temperature;BME280_humidity;BME280_pressure;Samples;Min_cycle;Max_cycle;Signal;HPM_P1;HPM_P2
2023/12/31 00:00:31;;;;;;;122.38;55.38;;;16.30;73.10;;;;;;4901198;28;89806;-41
2023/12/31 00:02:56;;;;;;;122.00;55.22;;;16.20;73.00;;;;;;4899402;28;91079;-46
2023/12/31 00:05:22;;;;;;;123.28;55.97;;;16.20;73.00;;;;;;4901322;28;90316;-41
2023/12/31 00:07:48;;;;;;;122.25;55.45;;;16.20;73.00;;;;;;4899101;28;90029;-46
2023/12/31 00:10:14;;;;;;;122.57;55.35;;;16.20;73.10;;;;;;4899584;28;90883;-41
2023/12/31 00:12:39;;;;;;;121.93;55.40;;;16.20;72.90;;;;;;4894935;28;89855;-43
2023/12/31 00:15:05;;;;;;;121.63;55.30;;;16.20;72.80;;;;;;4900489;28;89380;-43
2023/12/31 00:17:31;;;;;;;123.28;55.95;;;16.30;72.90;;;;;;4900312;28;90000;-46
2023/12/31 00:19:57;;;;;;;122.07;55.55;;;16.30;72.80;;;;;;4902997;28;89947;-45
2023/12/31 00:22:22;;;;;;;122.93;55.90;;;16.20;72.90;;;;;;4905526;28;89604;-45
2023/12/31 00:24:54;;;;;;;123.53;55.53;;;16.30;72.80;;;;;;4899645;28;89715;-40
2023/12/31 00:27:19;;;;;;;;;;;16.30;72.70;;;;;;4906319;28;89482;-45
2023/12/31 00:29:45;;;;;;;122.18;55.72;;;16.30;72.70;;;;;;4905020;28;89000;-45
2023/12/31 00:32:11;;;;;;;122.03;55.47;;;16.20;72.60;;;;;;4905026;28;91308;-42
2023/12/31 00:34:37;;;;;;;121.43;55.35;;;16.30;72.70;;;;;;4904923;28;90563;-42
2023/12/31 00:37:03;;;;;;;122.18;55.50;;;16.20;72.60;;;;;;4904076;28;95599;-40
2023/12/31 00:39:29;;;;;;;123.75;55.63;;;16.30;72.70;;;;;;4900981;28;91025;-41
2023/12/31 00:41:55;;;;;;;122.47;55.22;;;16.20;72.60;;;;;;4894958;28;91560;-42
2023/12/31 00:44:20;;;;;;;123.65;55.33;;;16.20;72.50;;;;;;4901456;28;90438;-44
2023/12/31 00:46:46;;;;;;;122.35;55.60;;;16.20;72.50;;;;;;4905160;28;91427;-42
2023/12/31 00:49:12;;;;;;;123.38;55.58;;;16.20;72.60;;;;;;4903310;28;89214;-41
2023/12/31 00:51:37;;;;;;;121.95;55.33;;;16.20;72.60;;;;;;4903233;28;88637;-42
2023/12/31 00:54:03;;;;;;;122.00;55.38;;;16.20;72.50;;;;;;4902944;28;89775;-42
2023/12/31 00:56:29;;;;;;;121.82;55.22;;;16.20;72.50;;;;;;4901991;28;89693;-40
2023/12/31 00:58:54;;;;;;;123.60;54.97;;;16.20;72.50;;;;;;4904433;28;90473;-41
2023/12/31 01:01:20;;;;;;;122.22;55.35;;;16.20;72.50;;;;;;4897649;28;90119;-44
2023/12/31 01:03:47;;;;;;;122.18;55.25;;;16.20;72.50;;;;;;4900575;28;89434;-41
2023/12/31 01:06:13;;;;;;;123.22;54.97;;;16.20;72.50;;;;;;4904252;28;89506;-40
2023/12/31 01:08:38;;;;;;;122.10;55.33;;;16.20;72.50;;;;;;4899692;28;89130;-42
2023/12/31 01:11:04;;;;;;;121.70;54.85;;;16.20;72.50;;;;;;4897537;28;89947;-41
2023/12/31 01:13:31;;;;;;;121.50;55.53;;;16.20;72.50;;;;;;4901989;28;89363;-43
2023/12/31 01:15:56;;;;;;;121.82;55.33;;;16.20;72.50;;;;;;4900673;28;88870;-44
2023/12/31 01:18:22;;;;;;;122.47;55.25;;;16.20;72.40;;;;;;4902370;28;89522;-39
2023/12/31 01:20:48;;;;;;;122.13;55.47;;;16.20;72.50;;;;;;4903509;28;91796;-40
2023/12/31 01:23:14;;;;;;;122.15;55.33;;;16.20;72.50;;;;;;4896714;28;90692;-39
2023/12/31 01:25:40;;;;;;;120.82;54.75;;;16.10;72.40;;;;;;4901367;28;90401;-40
2023/12/31 01:28:06;;;;;;;121.68;55.20;;;16.10;72.40;;;;;;4897367;28;94239;-42
2023/12/31 01:30:31;;;;;;;121.82;54.97;;;16.10;72.40;;;;;;4900819;28;89453;-38
2023/12/31 01:32:57;;;;;;;121.22;54.97;;;16.10;72.40;;;;;;4901251;28;89496;-40
2023/12/31 01:35:23;;;;;;;121.45;55.28;;;16.10;72.40;;;;;;4900928;28;89511;-39
2023/12/31 01:37:48;;;;;;;121.57;55.05;;;16.10;72.50;;;;;;4900294;28;90237;-40
2023/12/31 01:40:14;;;;;;;120.68;54.92;;;16.10;72.40;;;;;;4894849;28;88732;-39
2023/12/31 01:42:40;;;;;;;121.00;55.15;;;16.10;72.50;;;;;;4897459;28;89979;-39
2023/12/31 01:45:06;;;;;;;122.35;55.45;;;16.10;72.40;;;;;;4899738;28;90620;-39
2023/12/31 01:47:36;;;;;;;122.78;55.50;;;16.10;72.50;;;;;;4902101;28;90546;-40
2023/12/31 01:50:04;;;;;;;121.68;55.35;;;16.10;72.50;;;;;;4902522;28;90507;-39
2023/12/31 01:52:31;;;;;;;122.45;55.70;;;16.10;72.60;;;;;;4897865;28;91183;-39
2023/12/31 01:55:00;;;;;;;122.05;55.45;;;16.10;72.60;;;;;;4899734;28;89258;-43
2023/12/31 01:57:29;;;;;;;121.25;54.88;;;16.10;72.60;;;;;;4901976;28;89432;-39
2023/12/31 02:00:00;;;;;;;122.13;55.33;;;16.10;72.60;;;;;;4900768;28;90150;-39
2023/12/31 02:02:26;;;;;;;121.60;55.03;;;16.10;72.50;;;;;;4899779;28;89468;-42
2023/12/31 02:04:52;;;;;;;120.95;54.95;;;16.10;72.60;;;;;;4894944;28;89669;-40
2023/12/31 02:07:20;;;;;;;120.47;54.35;;;16.10;72.60;;;;;;4901437;28;89809;-44
2023/12/31 02:09:46;;;;;;;121.63;55.05;;;16.00;72.60;;;;;;4902974;28;89389;-39
2023/12/31 02:12:12;;;;;;;121.40;55.08;;;16.10;72.70;;;;;;4894730;28;91820;-42
2023/12/31 02:14:38;;;;;;;121.40;55.05;;;16.00;72.50;;;;;;4904842;28;90807;-40
2023/12/31 02:17:03;;;;;;;123.03;55.35;;;16.00;72.50;;;;;;4897470;28;89378;-43
2023/12/31 02:19:29;;;;;;;121.40;55.10;;;16.00;72.50;;;;;;4896722;28;91405;-43
2023/12/31 02:21:55;;;;;;;121.15;54.85;;;16.00;72.40;;;;;;4898934;28;89672;-39
2023/12/31 02:24:30;;;;;;;121.38;54.92;;;16.00;72.40;;;;;;4899327;28;90110;-42
2023/12/31 02:26:55;;;;;;;121.50;55.03;;;16.00;72.40;;;;;;4895634;28;89922;-42
2023/12/31 02:29:21;;;;;;;121.82;55.03;;;16.00;72.50;;;;;;4897900;28;89198;-40
2023/12/31 02:31:47;;;;;;;121.15;54.78;;;16.00;72.40;;;;;;4899712;28;92331;-40
2023/12/31 02:34:12;;;;;;;121.50;55.08;;;16.00;72.40;;;;;;4898182;28;90308;-42
2023/12/31 02:36:38;;;;;;;120.18;54.58;;;16.00;72.40;;;;;;4893996;28;90422;-42
2023/12/31 02:39:04;;;;;;;120.70;54.72;;;16.00;72.40;;;;;;4896632;28;89567;-40
2023/12/31 02:41:32;;;;;;;121.85;55.30;;;16.00;72.40;;;;;;4896736;28;89323;-40
2023/12/31 02:43:57;;;;;;;121.63;55.08;;;16.00;72.40;;;;;;4895938;28;89924;-41
2023/12/31 02:46:23;;;;;;;122.80;55.22;;;15.90;72.40;;;;;;4899114;28;90110;-40
2023/12/31 02:48:49;;;;;;;122.22;54.95;;;15.90;72.40;;;;;;4905123;28;89275;-41
2023/12/31 02:51:14;;;;;;;121.47;55.03;;;15.90;72.30;;;;;;4897762;28;88963;-41
2023/12/31 02:53:40;;;;;;;121.65;54.90;;;15.90;72.30;;;;;;4900979;28;89449;-44
2023/12/31 02:56:06;;;;;;;120.43;54.72;;;15.90;72.30;;;;;;4902418;28;90210;-39
2023/12/31 02:58:31;;;;;;;120.95;54.75;;;15.90;72.30;;;;;;4901428;28;89915;-40
2023/12/31 03:01:00;;;;;;;120.70;54.47;;;15.90;72.30;;;;;;4900346;28;90795;-40
2023/12/31 03:03:25;;;;;;;122.63;55.22;;;15.90;72.40;;;;;;4899338;28;89734;-41
2023/12/31 03:05:51;;;;;;;121.53;54.65;;;15.90;72.40;;;;;;4900016;28;89397;-39
2023/12/31 03:08:17;;;;;;;120.85;54.97;;;15.90;72.30;;;;;;4898866;28;89461;-40
2023/12/31 03:10:42;;;;;;;120.50;54.78;;;15.90;72.30;;;;;;4899607;28;90269;-39
2023/12/31 03:13:08;;;;;;;120.07;54.15;;;15.90;72.30;;;;;;4899952;28;89894;-39
2023/12/31 03:15:33;;;;;;;121.28;54.88;;;15.90;72.30;;;;;;4901029;28;89545;-39
2023/12/31 03:17:59;;;;;;;121.38;55.22;;;15.90;72.30;;;;;;4906162;28;88718;-39
2023/12/31 03:20:25;;;;;;;121.60;55.08;;;15.90;72.30;;;;;;4903358;28;89240;-40
2023/12/31 03:22:50;;;;;;;121.07;54.75;;;15.90;72.30;;;;;;4897239;28;89492;-39
2023/12/31 03:25:16;;;;;;;121.38;54.95;;;15.80;72.20;;;;;;4899349;28;90489;-39
2023/12/31 03:27:43;;;;;;;121.45;55.03;;;15.90;72.30;;;;;;4906287;28;89678;-39
2023/12/31 03:30:09;;;;;;;122.07;55.30;;;15.90;72.30;;;;;;4900659;28;90896;-42
2023/12/31 03:32:35;;;;;;;120.97;54.65;;;15.90;72.30;;;;;;4897822;28;89471;-42
2023/12/31 03:35:00;;;;;;;121.47;55.28;;;15.80;72.20;;;;;;4900802;28;89985;-39
2023/12/31 03:37:27;;;;;;;121.18;55.00;;;15.80;72.20;;;;;;4903075;28;90267;-42
2023/12/31 03:39:54;;;;;;;120.05;54.25;;;15.80;72.20;;;;;;4895793;28;89794;-39
2023/12/31 03:42:20;;;;;;;120.78;54.97;;;15.80;72.20;;;;;;4898494;28;89126;-40
2023/12/31 03:44:47;;;;;;;120.43;54.67;;;15.80;72.20;;;;;;4896154;28;90470;-39
2023/12/31 03:47:12;;;;;;;119.90;54.42;;;15.80;72.20;;;;;;4902134;28;89073;-40
2023/12/31 03:49:38;;;;;;;120.70;54.70;;;15.80;72.20;;;;;;4898930;28;90481;-39
2023/12/31 03:52:04;;;;;;;121.45;55.00;;;15.80;72.20;;;;;;4901652;28;89793;-38
2023/12/31 03:54:30;;;;;;;122.45;55.13;;;15.80;72.20;;;;;;4901542;28;90261;-42
2023/12/31 03:56:56;;;;;;;121.15;55.10;;;15.80;72.30;;;;;;4902059;28;91150;-42
2023/12/31 03:59:21;;;;;;;121.05;55.13;;;15.80;72.20;;;;;;4898855;28;90377;-42
2023/12/31 04:01:47;;;;;;;121.22;54.85;;;15.80;72.20;;;;;;4900345;28;89925;-43
2023/12/31 04:04:15;;;;;;;120.75;54.63;;;15.80;72.20;;;;;;4905656;28;89919;-41
2023/12/31 04:06:42;;;;;;;120.25;54.60;;;15.80;72.20;;;;;;4903277;28;89117;-42
2023/12/31 04:09:09;;;;;;;121.28;54.92;;;15.80;72.20;;;;;;4900480;28;89903;-41
2023/12/31 04:11:34;;;;;;;121.00;54.83;;;15.70;72.20;;;;;;4901169;28;89549;-41
2023/12/31 04:14:00;;;;;;;120.20;54.72;;;15.70;72.20;;;;;;4900360;28;90593;-45
2023/12/31 04:16:26;;;;;;;120.53;54.92;;;15.80;72.20;;;;;;4901333;28;89910;-43
2023/12/31 04:18:51;;;;;;;121.82;54.97;;;15.70;72.20;;;;;;4904649;28;90847;-40
2023/12/31 04:21:17;;;;;;;121.43;54.92;;;15.70;72.20;;;;;;4905748;28;89481;-41
2023/12/31 04:23:43;;;;;;;120.50;55.15;;;15.70;72.10;;;;;;4900866;28;89862;-43
2023/12/31 04:26:08;;;;;;;120.43;54.70;;;15.70;72.20;;;;;;4901632;28;90363;-46
2023/12/31 04:28:34;;;;;;;120.40;54.60;;;15.70;72.20;;;;;;4899825;28;90603;-42
2023/12/31 04:31:02;;;;;;;119.90;54.65;;;15.70;72.20;;;;;;4901832;28;89804;-43
2023/12/31 04:33:28;;;;;;;120.90;54.55;;;15.70;72.10;;;;;;4904171;28;89626;-42
2023/12/31 04:35:53;;;;;;;120.90;54.72;;;15.70;72.10;;;;;;4903569;28;89758;-43
2023/12/31 04:38:19;;;;;;;120.60;54.20;;;15.70;72.20;;;;;;4901779;28;91420;-43
2023/12/31 04:40:45;;;;;;;121.72;54.80;;;15.70;72.10;;;;;;4899833;28;90018;-40
2023/12/31 04:43:10;;;;;;;121.10;54.88;;;15.70;72.10;;;;;;4903089;28;89776;-41
2023/12/31 04:45:36;;;;;;;121.00;54.92;;;15.60;72.10;;;;;;4899248;28;89451;-40
2023/12/31 04:48:01;;;;;;;120.68;54.55;;;15.70;72.20;;;;;;4898470;28;90145;-39
2023/12/31 04:50:27;;;;;;;120.78;54.75;;;15.70;72.20;;;;;;4900172;28;89457;-40
2023/12/31 04:52:53;;;;;;;122.68;54.97;;;15.70;72.20;;;;;;4895470;28;90378;-43
2023/12/31 04:55:18;;;;;;;120.13;54.88;;;15.70;72.20;;;;;;4903349;28;93224;-41
2023/12/31 04:57:47;;;;;;;120.75;54.38;;;15.70;72.20;;;;;;4899330;28;90623;-40
2023/12/31 05:00:14;;;;;;;121.43;55.13;;;15.70;72.20;;;;;;4895665;28;90538;-40
2023/12/31 05:02:39;;;;;;;121.60;55.03;;;15.70;72.40;;;;;;4903469;28;90489;-43
2023/12/31 05:05:06;;;;;;;122.40;55.40;;;15.70;72.30;;;;;;4902052;28;89430;-40
2023/12/31 05:07:31;;;;;;;121.20;55.15;;;15.70;72.50;;;;;;4898176;28;90858;-42
2023/12/31 05:09:57;;;;;;;121.03;54.90;;;15.60;72.60;;;;;;4897432;28;89870;-41
2023/12/31 05:12:23;;;;;;;122.15;54.65;;;15.70;72.50;;;;;;4898701;28;89784;-40
2023/12/31 05:14:48;;;;;;;121.63;54.97;;;15.70;72.50;;;;;;4902401;28;89521;-42
2023/12/31 05:17:14;;;;;;;120.00;54.65;;;15.70;72.50;;;;;;4900955;28;89740;-43
2023/12/31 05:19:40;;;;;;;121.20;55.00;;;15.70;72.60;;;;;;4902130;28;88776;-41
2023/12/31 05:22:06;;;;;;;124.35;55.15;;;15.70;72.50;;;;;;4901976;28;89335;-41
2023/12/31 05:24:32;;;;;;;123.03;54.78;;;15.70;72.50;;;;;;4897424;28;94056;-43
2023/12/31 05:26:57;;;;;;;120.97;54.65;;;15.70;72.60;;;;;;4898440;28;90254;-41
2023/12/31 05:29:23;;;;;;;121.00;54.55;;;15.70;72.70;;;;;;4899030;28;89978;-41
2023/12/31 05:31:49;;;;;;;121.18;54.90;;;15.70;72.50;;;;;;4900710;28;90040;-44
2023/12/31 05:34:14;;;;;;;122.43;55.03;;;15.70;72.40;;;;;;4901052;28;89578;-41
2023/12/31 05:36:40;;;;;;;121.85;54.72;;;15.70;72.50;;;;;;4900931;28;89404;-40
2023/12/31 05:39:05;;;;;;;120.70;54.78;;;15.70;72.60;;;;;;4899978;28;90967;-41
2023/12/31 05:41:31;;;;;;;120.70;54.63;;;15.70;72.60;;;;;;4898459;28;89663;-41
2023/12/31 05:43:57;;;;;;;124.57;55.08;;;15.70;72.60;;;;;;4901679;28;89020;-42
2023/12/31 05:46:23;;;;;;;123.47;55.03;;;15.70;72.60;;;;;;4901618;28;90338;-42
2023/12/31 05:48:48;;;;;;;122.75;55.05;;;15.70;72.60;;;;;;4901661;28;91424;-41
2023/12/31 05:51:14;;;;;;;123.10;55.08;;;15.70;72.50;;;;;;4902179;28;90872;-45
2023/12/31 05:53:40;;;;;;;126.18;54.90;;;15.70;72.40;;;;;;4898972;28;89445;-42
2023/12/31 05:56:06;;;;;;;121.53;54.95;;;15.70;72.50;;;;;;4899289;28;91448;-41
2023/12/31 05:58:31;;;;;;;120.75;54.88;;;15.70;72.50;;;;;;4901676;28;89627;-43
2023/12/31 06:00:58;;;;;;;120.68;54.78;;;15.70;72.50;;;;;;4903918;28;90371;-42
2023/12/31 06:03:24;;;;;;;120.63;55.17;;;15.70;72.60;;;;;;4903502;28;89573;-45
2023/12/31 06:05:49;;;;;;;121.57;54.92;;;15.70;72.50;;;;;;4901253;28;90003;-44
2023/12/31 06:08:15;;;;;;;120.28;54.70;;;15.70;72.50;;;;;;4897958;28;90227;-42
2023/12/31 06:10:41;;;;;;;120.47;54.50;;;15.70;72.50;;;;;;4903742;28;89444;-40
2023/12/31 06:13:07;;;;;;;121.22;55.25;;;15.70;72.50;;;;;;4904179;28;89487;-42
2023/12/31 06:15:32;;;;;;;121.32;55.33;;;15.70;72.50;;;;;;4900559;28;90197;-41
2023/12/31 06:17:59;;;;;;;120.40;54.65;;;15.70;72.50;;;;;;4901883;28;89629;-40
2023/12/31 06:20:24;;;;;;;120.18;54.58;;;15.70;72.40;;;;;;4900193;28;89450;-46
2023/12/31 06:22:50;;;;;;;120.82;54.60;;;15.70;72.40;;;;;;4901498;28;89721;-42
2023/12/31 06:25:16;;;;;;;121.95;54.88;;;15.70;72.40;;;;;;4901766;28;89979;-40
2023/12/31 06:27:41;;;;;;;121.65;54.65;;;15.70;72.30;;;;;;4903534;28;90582;-40
2023/12/31 06:30:07;;;;;;;121.53;54.78;;;15.70;72.30;;;;;;4903072;28;89473;-42
2023/12/31 06:32:33;;;;;;;121.45;54.72;;;15.70;72.40;;;;;;4901882;28;89217;-39
2023/12/31 06:34:59;;;;;;;122.97;54.60;;;15.70;72.50;;;;;;4900922;28;89746;-41
2023/12/31 06:37:25;;;;;;;120.60;54.55;;;15.70;72.40;;;;;;4902838;28;89594;-42
2023/12/31 06:39:51;;;;;;;120.80;54.58;;;15.70;72.40;;;;;;4897091;28;91965;-39
2023/12/31 06:42:17;;;;;;;122.18;54.95;;;15.70;72.40;;;;;;4896803;28;89658;-42
2023/12/31 06:44:42;;;;;;;120.35;54.42;;;15.70;72.50;;;;;;4905308;28;89950;-39
2023/12/31 06:47:08;;;;;;;121.97;54.80;;;15.70;72.50;;;;;;4901437;28;90455;-37
2023/12/31 06:49:34;;;;;;;124.50;54.97;;;15.70;72.50;;;;;;4902994;28;89551;-40
2023/12/31 06:52:00;;;;;;;121.55;54.85;;;15.70;72.50;;;;;;4896151;28;90568;-39
2023/12/31 06:54:27;;;;;;;120.90;54.97;;;15.60;72.60;;;;;;4894469;28;94494;-40
2023/12/31 06:56:53;;;;;;;120.45;54.50;;;15.70;72.60;;;;;;4904339;28;90764;-39
2023/12/31 06:59:18;;;;;;;120.95;54.67;;;15.70;72.50;;;;;;4902589;28;89371;-40
2023/12/31 07:01:44;;;;;;;122.10;54.55;;;15.70;72.60;;;;;;4896791;28;90609;-39
2023/12/31 07:04:10;;;;;;;120.95;54.72;;;15.70;72.70;;;;;;4898929;28;90527;-40
2023/12/31 07:06:35;;;;;;;120.57;54.50;;;15.60;72.60;;;;;;4899098;28;89911;-39
2023/12/31 07:09:01;;;;;;;121.03;54.60;;;15.60;72.50;;;;;;4897019;28;90494;-39
2023/12/31 07:11:27;;;;;;;121.35;54.70;;;15.60;72.50;;;;;;4896556;28;90313;-42
2023/12/31 07:13:52;;;;;;;121.03;55.22;;;15.70;72.50;;;;;;4896942;28;89493;-37
2023/12/31 07:16:18;;;;;;;120.45;54.85;;;15.70;72.60;;;;;;4897315;28;91212;-39
2023/12/31 07:18:44;;;;;;;120.40;54.75;;;15.60;72.60;;;;;;4897975;28;91691;-38
2023/12/31 07:21:10;;;;;;;121.38;54.83;;;15.60;72.60;;;;;;4896423;28;88394;-41
2023/12/31 07:23:36;;;;;;;120.97;54.83;;;15.60;72.60;;;;;;4896611;28;89898;-38
2023/12/31 07:26:03;;;;;;;119.93;54.40;;;15.70;73.40;;;;;;4897989;28;95535;-42
2023/12/31 07:28:29;;;;;;;122.20;54.63;;;15.70;72.60;;;;;;4899081;28;91459;-41
2023/12/31 07:30:55;;;;;;;121.57;54.50;;;15.60;72.50;;;;;;4899392;28;90160;-39
2023/12/31 07:33:21;;;;;;;120.70;54.85;;;15.60;72.50;;;;;;4896430;28;89466;-40
2023/12/31 07:35:46;;;;;;;121.78;54.40;;;15.60;72.50;;;;;;4897831;28;89716;-41
2023/12/31 07:38:13;;;;;;;120.80;54.60;;;15.60;72.50;;;;;;4895574;28;89601;-41
2023/12/31 07:40:38;;;;;;;121.97;54.55;;;15.60;72.60;;;;;;4897141;28;89343;-42
2023/12/31 07:43:04;;;;;;;122.10;54.60;;;15.60;72.60;;;;;;4897294;28;91532;-41
2023/12/31 07:45:31;;;;;;;120.70;54.67;;;15.60;72.60;;;;;;4897441;28;89703;-41
2023/12/31 07:47:56;;;;;;;119.95;54.47;;;15.60;72.70;;;;;;4899034;28;89681;-42
2023/12/31 07:50:22;;;;;;;121.15;54.92;;;15.60;72.60;;;;;;4898372;28;89939;-41
2023/12/31 07:52:48;;;;;;;121.13;54.20;;;15.60;72.50;;;;;;4900174;28;90453;-40
2023/12/31 07:55:14;;;;;;;120.45;54.53;;;15.60;72.70;;;;;;4900958;28;92871;-39
2023/12/31 07:57:39;;;;;;;120.10;54.70;;;15.60;72.60;;;;;;4896497;28;90336;-42
2023/12/31 08:00:07;;;;;;;120.63;54.75;;;15.60;72.40;;;;;;4898158;28;89618;-40
2023/12/31 08:02:33;;;;;;;122.20;54.70;;;15.60;72.50;;;;;;4899076;28;89430;-40
2023/12/31 08:04:59;;;;;;;120.22;54.55;;;15.60;72.30;;;;;;4897796;28;89508;-41
2023/12/31 08:07:24;;;;;;;121.63;54.55;;;15.60;72.40;;;;;;4898498;28;89429;-43
2023/12/31 08:09:50;;;;;;;119.80;54.13;;;15.60;72.40;;;;;;4891124;28;91423;-41
2023/12/31 08:12:16;;;;;;;121.30;54.55;;;15.50;72.30;;;;;;4893096;28;89399;-40
2023/12/31 08:14:41;;;;;;;119.82;54.25;;;15.50;72.40;;;;;;4895279;28;90324;-41
2023/12/31 08:17:07;;;;;;;122.45;54.65;;;15.60;72.30;;;;;;4898195;28;92381;-41
2023/12/31 08:19:33;;;;;;;125.10;54.53;;;15.50;72.10;;;;;;4895714;28;93974;-41
2023/12/31 08:21:59;;;;;;;120.95;54.20;;;15.50;72.20;;;;;;4895772;28;90135;-43
2023/12/31 08:24:25;;;;;;;120.32;54.50;;;15.50;72.50;;;;;;4897405;28;89757;-42
2023/12/31 08:26:52;;;;;;;120.43;54.65;;;15.50;72.70;;;;;;4895357;28;89675;-43
2023/12/31 08:29:18;;;;;;;122.47;55.03;;;15.50;72.90;;;;;;4896177;28;89730;-42
2023/12/31 08:31:49;;;;;;;122.97;54.63;;;15.50;73.60;;;;;;4896649;28;91296;-43
2023/12/31 08:34:15;;;;;;;121.50;54.80;;;15.50;73.50;;;;;;4892602;28;92471;-40
2023/12/31 08:36:41;;;;;;;120.95;55.10;;;15.60;73.60;;;;;;4898071;28;90925;-44
2023/12/31 08:39:07;;;;;;;121.93;55.28;;;15.50;73.70;;;;;;4892389;28;89989;-41
2023/12/31 08:41:32;;;;;;;121.35;54.90;;;15.60;73.70;;;;;;4900652;28;90480;-40
2023/12/31 08:43:58;;;;;;;120.72;54.63;;;15.50;73.80;;;;;;4900893;28;89764;-40
2023/12/31 08:46:24;;;;;;;120.43;54.70;;;15.60;73.80;;;;;;4898814;28;89286;-40
2023/12/31 08:48:49;;;;;;;122.80;54.92;;;15.50;73.80;;;;;;4894367;28;89602;-39
2023/12/31 08:51:15;;;;;;;124.05;55.55;;;15.50;73.80;;;;;;4900885;28;91392;-39
2023/12/31 08:53:42;;;;;;;123.95;55.30;;;15.60;73.70;;;;;;4897313;28;90069;-40
2023/12/31 08:56:08;;;;;;;123.15;54.55;;;15.60;73.80;;;;;;4900870;28;89793;-40
2023/12/31 08:58:33;;;;;;;123.53;55.38;;;15.60;73.90;;;;;;4897503;28;88802;-40
2023/12/31 09:00:59;;;;;;;140.75;55.20;;;15.60;74.10;;;;;;4895487;28;90528;-41
2023/12/31 09:03:25;;;;;;;125.90;54.70;;;15.60;73.90;;;;;;4900896;28;89424;-40
2023/12/31 09:05:51;;;;;;;126.13;55.25;;;15.60;73.90;;;;;;4893620;28;90749;-40
2023/12/31 09:08:16;;;;;;;123.78;55.33;;;15.70;74.30;;;;;;4890503;28;90272;-39
2023/12/31 09:10:42;;;;;;;122.13;54.55;;;15.70;74.30;;;;;;4897510;28;94039;-39
2023/12/31 09:13:08;;;;;;;126.75;55.08;;;15.60;74.30;;;;;;4899092;28;89990;-39
2023/12/31 09:15:35;;;;;;;128.68;54.85;;;15.60;74.60;;;;;;4901043;28;90133;-39
2023/12/31 09:18:01;;;;;;;128.40;55.28;;;15.60;74.90;;;;;;4901567;28;89932;-39
2023/12/31 09:20:26;;;;;;;123.93;54.95;;;15.60;75.30;;;;;;4898451;28;93853;-38
2023/12/31 09:22:53;;;;;;;127.25;55.53;;;15.60;75.50;;;;;;4896684;28;89101;-39
2023/12/31 09:25:19;;;;;;;123.85;55.15;;;15.60;75.70;;;;;;4893317;28;89740;-38
2023/12/31 09:27:45;;;;;;;124.90;55.00;;;15.60;75.90;;;;;;4894258;28;90742;-39
2023/12/31 09:30:11;;;;;;;124.07;54.60;;;15.60;76.00;;;;;;4894739;28;91823;-39
2023/12/31 09:32:37;;;;;;;125.70;55.22;;;15.60;76.00;;;;;;4900158;28;90753;-39
2023/12/31 09:35:03;;;;;;;134.57;55.22;;;15.60;76.40;;;;;;4895293;28;90149;-39
2023/12/31 09:37:29;;;;;;;124.45;54.70;;;15.60;75.90;;;;;;4895577;28;91438;-41
2023/12/31 09:39:55;;;;;;;128.23;55.65;;;15.60;76.10;;;;;;4895438;28;90361;-41
2023/12/31 09:42:50;;;;;;;127.25;55.05;;;15.60;76.60;;;;;;4892486;28;89533;-44
2023/12/31 09:45:23;;;;;;;126.97;55.28;;;15.70;76.50;;;;;;4895392;28;90516;-38
2023/12/31 09:47:53;;;;;;;125.95;55.17;;;15.80;77.40;;;;;;4896360;28;93499;-39
2023/12/31 09:50:22;;;;;;;130.18;55.22;;;15.80;77.10;;;;;;4892185;28;94133;-44
2023/12/31 09:52:49;;;;;;;126.90;55.53;;;15.90;77.60;;;;;;4895562;28;90117;-41
2023/12/31 09:55:18;;;;;;;125.07;55.35;;;15.90;77.10;;;;;;4895890;28;95048;-39
2023/12/31 09:57:47;;;;;;;124.22;54.67;;;15.90;76.70;;;;;;4895442;28;90361;-39
2023/12/31 10:00:13;;;;;;;133.77;55.88;;;15.90;76.70;;;;;;4893805;28;89898;-42
2023/12/31 10:02:39;;;;;;;138.00;55.30;;;16.00;76.40;;;;;;4889198;28;90066;-40
2023/12/31 10:05:05;;;;;;;124.55;55.05;;;15.90;76.40;;;;;;4895656;28;90158;-41
2023/12/31 10:07:31;;;;;;;124.85;55.28;;;16.00;76.00;;;;;;4893586;28;94592;-40
2023/12/31 10:10:00;;;;;;;128.32;55.78;;;16.00;75.90;;;;;;4899863;28;91259;-41
2023/12/31 10:12:27;;;;;;;124.93;55.72;;;16.00;75.40;;;;;;4900984;28;89226;-42
2023/12/31 10:14:54;;;;;;;126.22;55.25;;;16.00;75.30;;;;;;4896900;28;90312;-42
2023/12/31 10:17:20;;;;;;;131.32;55.60;;;16.00;75.80;;;;;;4895114;28;94917;-42
2023/12/31 10:19:49;;;;;;;128.40;54.95;;;16.00;75.90;;;;;;4900221;28;91243;-42
2023/12/31 10:22:15;;;;;;;130.85;55.20;;;16.00;75.90;;;;;;4897038;28;89826;-44
2023/12/31 10:24:43;;;;;;;127.85;55.17;;;16.00;75.80;;;;;;4893957;28;97201;-46
2023/12/31 10:27:11;;;;;;;134.60;55.65;;;16.00;76.00;;;;;;4898623;28;91568;-41
2023/12/31 10:29:37;;;;;;;127.15;55.63;;;16.10;75.70;;;;;;4899736;28;90724;-43
2023/12/31 10:32:03;;;;;;;125.00;55.47;;;16.10;77.10;;;;;;4900116;28;89452;-41
2023/12/31 10:34:29;;;;;;;131.60;56.25;;;16.10;76.60;;;;;;4895783;28;89585;-42
2023/12/31 10:37:05;;;;;;;128.80;56.15;;;16.10;76.50;;;;;;4899262;28;88525;-42
2023/12/31 10:39:38;;;;;;;130.40;56.00;;;16.10;76.70;;;;;;4898437;28;89524;-40
2023/12/31 10:42:05;;;;;;;128.10;57.00;;;16.10;76.40;;;;;;4902064;28;89867;-40
2023/12/31 10:44:38;;;;;;;132.18;60.90;;;16.10;76.00;;;;;;4893197;28;90706;-42
2023/12/31 10:47:05;;;;;;;135.07;64.80;;;16.20;76.20;;;;;;4898490;28;89607;-41
2023/12/31 10:49:32;;;;;;;138.23;65.00;;;16.20;76.30;;;;;;4897980;28;89825;-44
2023/12/31 10:52:03;;;;;;;140.00;67.28;;;16.10;76.40;;;;;;4897411;28;90588;-41
2023/12/31 10:54:45;;;;;;;141.60;67.03;;;16.20;76.60;;;;;;4896307;28;89884;-40
2023/12/31 10:57:12;;;;;;;147.20;74.20;;;16.10;76.60;;;;;;4895479;28;90119;-42
2023/12/31 10:59:41;;;;;;;149.65;73.20;;;16.10;77.00;;;;;;4889195;28;90280;-39
2023/12/31 11:02:17;;;;;;;156.30;74.82;;;16.20;79.60;;;;;;4892883;28;89554;-39
2023/12/31 11:04:47;;;;;;;151.52;70.82;;;16.30;81.20;;;;;;4894522;28;89915;-39
2023/12/31 11:07:19;;;;;;;146.60;67.57;;;16.30;81.50;;;;;;4892140;28;89512;-42
2023/12/31 11:09:46;;;;;;;141.43;66.70;;;16.30;81.10;;;;;;4890790;28;91216;-42
2023/12/31 11:12:16;;;;;;;245.85;103.05;;;16.30;81.30;;;;;;4886499;28;95001;-42
2023/12/31 11:15:03;;;;;;;211.38;92.05;;;16.30;80.90;;;;;;4876525;28;90187;-43
2023/12/31 11:17:56;;;;;;;212.18;88.47;;;16.30;80.30;;;;;;4888889;28;89666;-42
2023/12/31 11:20:43;;;;;;;200.05;85.68;;;16.30;79.30;;;;;;4893420;28;89088;-44
2023/12/31 11:23:13;;;;;;;176.70;79.13;;;16.30;78.10;;;;;;4887601;28;91921;-42
2023/12/31 11:25:39;;;;;;;176.57;76.43;;;16.30;77.20;;;;;;4884959;28;89838;-42
2023/12/31 11:28:06;;;;;;;179.63;76.28;;;16.20;76.50;;;;;;4892942;28;93911;-44
2023/12/31 11:30:55;;;;;;;170.10;74.38;;;16.30;76.10;;;;;;4892875;28;89748;-42
2023/12/31 11:33:40;;;;;;;161.35;72.30;;;16.30;75.90;;;;;;4898313;28;90864;-42
2023/12/31 11:36:11;;;;;;;153.73;69.05;;;16.30;76.40;;;;;;4893537;28;94936;-43
2023/12/31 11:39:07;;;;;;;158.05;69.53;;;16.30;77.60;;;;;;4902150;28;90260;-42
2023/12/31 11:41:39;;;;;;;152.27;67.30;;;16.40;78.50;;;;;;4891216;28;94170;-44
2023/12/31 11:44:04;;;;;;;164.77;65.28;;;16.40;78.50;;;;;;4895450;28;89569;-40
2023/12/31 11:46:33;;;;;;;145.65;66.20;;;16.40;77.80;;;;;;4888880;28;90007;-42
2023/12/31 11:48:59;;;;;;;160.95;68.10;;;16.40;77.70;;;;;;4888362;28;90076;-37
2023/12/31 11:51:29;;;;;;;158.40;73.95;;;16.50;77.60;;;;;;4892445;28;97497;-40
2023/12/31 11:53:57;;;;;;;165.23;79.80;;;16.50;77.30;;;;;;4893457;28;90092;-39
2023/12/31 11:56:29;;;;;;;172.88;87.45;;;16.60;77.00;;;;;;4892271;28;91244;-38
2023/12/31 11:58:55;;;;;;;171.98;86.25;;;16.60;76.30;;;;;;4893951;28;90968;-37
2023/12/31 12:01:21;;;;;;;161.95;83.40;;;16.70;75.50;;;;;;4892445;28;90543;-40
2023/12/31 12:03:46;;;;;;;160.60;82.18;;;16.70;74.90;;;;;;4895285;28;89995;-37
2023/12/31 12:06:12;;;;;;;160.48;80.95;;;16.80;74.40;;;;;;4885411;28;89931;-40
2023/12/31 12:08:39;;;;;;;154.50;78.40;;;16.90;74.20;;;;;;4889095;28;90202;-46
2023/12/31 12:11:04;;;;;;;162.30;77.05;;;16.90;73.90;;;;;;4889791;28;89546;-48
2023/12/31 12:13:32;;;;;;;157.15;74.50;;;17.00;73.20;;;;;;4896262;28;90017;-45
2023/12/31 12:15:58;;;;;;;247.45;142.50;;;17.00;72.40;;;;;;4901345;28;90276;-45